sensor_id;sensor_type;location;lat;lon;timestamp;P1;durP1;ratioP1;P2;durP2;ratioP2
57395;SDS011;43222;52.912;6.940;2023-04-25T00:00:05;24.58;;;5.45;;
57395;SDS011;43222;52.912;6.940;2023-04-25T00:02:32;25.52;;;5.07;;
57395;SDS011;43222;52.912;6.940;2023-04-25T00:05:00;21.70;;;4.65;;
57395;SDS011;43222;52.912;6.940;2023-04-25T00:07:26;19.70;;;5.38;;
57395;SDS011;43222;52.912;6.940;2023-04-25T00:09:53;21.90;;;5.03;;
57395;SDS011;43222;52.912;6.940;2023-04-25T00:12:19;20.70;;;4.35;;
57395;SDS011;43222;52.912;6.940;2023-04-25T00:14:46;19.20;;;4.38;;
57395;SDS011;43222;52.912;6.940;2023-04-25T00:17:14;23.58;;;4.47;;
57395;SDS011;43222;52.912;6.940;2023-04-25T00:19:41;21.48;;;4.13;;
57395;SDS011;43222;52.912;6.940;2023-04-25T00:22:09;21.40;;;3.88;;
57395;SDS011;43222;52.912;6.940;2023-04-25T00:24:35;20.73;;;4.40;;
57395;SDS011;43222;52.912;6.940;2023-04-25T00:27:01;22.45;;;4.65;;
57395;SDS011;43222;52.912;6.940;2023-04-25T00:29:28;24.67;;;4.95;;
57395;SDS011;43222;52.912;6.940;2023-04-25T00:31:54;24.60;;;4.47;;
57395;SDS011;43222;52.912;6.940;2023-04-25T00:34:20;18.45;;;4.15;;
57395;SDS011;43222;52.912;6.940;2023-04-25T00:36:46;23.35;;;4.38;;
57395;SDS011;43222;52.912;6.940;2023-04-25T00:39:12;17.38;;;3.75;;
57395;SDS011;43222;52.912;6.940;2023-04-25T00:41:38;23.13;;;4.57;;
57395;SDS011;43222;52.912;6.940;2023-04-25T00:44:04;22.40;;;4.82;;
57395;SDS011;43222;52.912;6.940;2023-04-25T00:46:31;23.13;;;4.45;;
57395;SDS011;43222;52.912;6.940;2023-04-25T00:48:58;21.23;;;4.35;;
57395;SDS011;43222;52.912;6.940;2023-04-25T00:51:24;20.52;;;4.43;;
57395;SDS011;43222;52.912;6.940;2023-04-25T00:53:51;22.42;;;4.90;;
57395;SDS011;43222;52.912;6.940;2023-04-25T00:56:18;19.73;;;4.72;;
57395;SDS011;43222;52.912;6.940;2023-04-25T00:58:44;23.80;;;5.00;;
57395;SDS011;43222;52.912;6.940;2023-04-25T01:01:10;23.35;;;4.65;;
57395;SDS011;43222;52.912;6.940;2023-04-25T01:03:37;21.88;;;4.50;;
57395;SDS011;43222;52.912;6.940;2023-04-25T01:06:07;18.63;;;4.50;;
57395;SDS011;43222;52.912;6.940;2023-04-25T01:08:34;25.30;;;5.00;;
57395;SDS011;43222;52.912;6.940;2023-04-25T01:11:01;22.88;;;4.43;;
57395;SDS011;43222;52.912;6.940;2023-04-25T01:13:27;20.75;;;4.80;;
57395;SDS011;43222;52.912;6.940;2023-04-25T01:15:53;25.42;;;4.40;;
57395;SDS011;43222;52.912;6.940;2023-04-25T01:18:19;23.65;;;4.53;;
57395;SDS011;43222;52.912;6.940;2023-04-25T01:20:45;20.67;;;4.50;;
57395;SDS011;43222;52.912;6.940;2023-04-25T01:23:12;24.00;;;4.28;;
57395;SDS011;43222;52.912;6.940;2023-04-25T01:25:38;20.75;;;4.47;;
57395;SDS011;43222;52.912;6.940;2023-04-25T01:28:04;20.80;;;4.85;;
57395;SDS011;43222;52.912;6.940;2023-04-25T01:30:30;25.35;;;4.63;;
57395;SDS011;43222;52.912;6.940;2023-04-25T01:32:57;24.05;;;5.28;;
57395;SDS011;43222;52.912;6.940;2023-04-25T01:35:23;22.65;;;5.32;;
57395;SDS011;43222;52.912;6.940;2023-04-25T01:37:50;18.10;;;4.13;;
57395;SDS011;43222;52.912;6.940;2023-04-25T01:40:17;22.23;;;5.13;;
57395;SDS011;43222;52.912;6.940;2023-04-25T01:42:44;21.75;;;4.65;;
57395;SDS011;43222;52.912;6.940;2023-04-25T01:45:10;26.63;;;4.90;;
57395;SDS011;43222;52.912;6.940;2023-04-25T01:47:37;21.90;;;5.25;;
57395;SDS011;43222;52.912;6.940;2023-04-25T01:50:04;21.65;;;4.10;;
57395;SDS011;43222;52.912;6.940;2023-04-25T01:52:31;23.55;;;5.05;;
57395;SDS011;43222;52.912;6.940;2023-04-25T01:54:57;20.02;;;4.43;;
57395;SDS011;43222;52.912;6.940;2023-04-25T01:57:24;19.70;;;4.45;;
57395;SDS011;43222;52.912;6.940;2023-04-25T01:59:50;21.80;;;4.65;;
57395;SDS011;43222;52.912;6.940;2023-04-25T02:02:16;24.65;;;5.45;;
57395;SDS011;43222;52.912;6.940;2023-04-25T02:04:42;28.60;;;5.43;;
57395;SDS011;43222;52.912;6.940;2023-04-25T02:07:09;23.02;;;4.55;;
57395;SDS011;43222;52.912;6.940;2023-04-25T02:09:35;23.88;;;5.65;;
57395;SDS011;43222;52.912;6.940;2023-04-25T02:12:01;20.05;;;6.30;;
57395;SDS011;43222;52.912;6.940;2023-04-25T02:14:27;20.63;;;6.00;;
57395;SDS011;43222;52.912;6.940;2023-04-25T02:16:53;25.80;;;4.20;;
57395;SDS011;43222;52.912;6.940;2023-04-25T02:19:19;26.23;;;4.90;;
57395;SDS011;43222;52.912;6.940;2023-04-25T02:21:45;20.63;;;4.75;;
57395;SDS011;43222;52.912;6.940;2023-04-25T02:24:11;24.33;;;4.22;;
57395;SDS011;43222;52.912;6.940;2023-04-25T02:26:37;20.30;;;4.60;;
57395;SDS011;43222;52.912;6.940;2023-04-25T02:29:04;25.35;;;4.50;;
57395;SDS011;43222;52.912;6.940;2023-04-25T02:31:30;25.40;;;4.65;;
57395;SDS011;43222;52.912;6.940;2023-04-25T02:33:56;24.17;;;4.88;;
57395;SDS011;43222;52.912;6.940;2023-04-25T02:36:22;26.13;;;4.93;;
57395;SDS011;43222;52.912;6.940;2023-04-25T02:38:49;27.00;;;5.00;;
57395;SDS011;43222;52.912;6.940;2023-04-25T02:41:15;20.67;;;4.45;;
57395;SDS011;43222;52.912;6.940;2023-04-25T02:43:41;21.58;;;4.05;;
57395;SDS011;43222;52.912;6.940;2023-04-25T02:46:07;19.58;;;4.90;;
57395;SDS011;43222;52.912;6.940;2023-04-25T02:48:33;20.38;;;4.68;;
57395;SDS011;43222;52.912;6.940;2023-04-25T02:50:59;21.25;;;4.70;;
57395;SDS011;43222;52.912;6.940;2023-04-25T02:53:25;21.02;;;4.47;;
57395;SDS011;43222;52.912;6.940;2023-04-25T02:55:51;23.80;;;4.95;;
57395;SDS011;43222;52.912;6.940;2023-04-25T02:58:17;26.08;;;4.88;;
57395;SDS011;43222;52.912;6.940;2023-04-25T03:00:44;25.20;;;3.92;;
57395;SDS011;43222;52.912;6.940;2023-04-25T03:03:10;20.75;;;3.78;;
57395;SDS011;43222;52.912;6.940;2023-04-25T03:05:36;18.52;;;4.05;;
57395;SDS011;43222;52.912;6.940;2023-04-25T03:08:02;20.17;;;4.10;;
57395;SDS011;43222;52.912;6.940;2023-04-25T03:10:28;19.58;;;3.83;;
57395;SDS011;43222;52.912;6.940;2023-04-25T03:12:54;20.65;;;3.97;;
57395;SDS011;43222;52.912;6.940;2023-04-25T03:15:20;22.10;;;4.47;;
57395;SDS011;43222;52.912;6.940;2023-04-25T03:17:47;18.27;;;3.88;;
57395;SDS011;43222;52.912;6.940;2023-04-25T03:20:13;16.17;;;3.78;;
57395;SDS011;43222;52.912;6.940;2023-04-25T03:22:39;18.35;;;3.85;;
57395;SDS011;43222;52.912;6.940;2023-04-25T03:25:05;15.25;;;3.80;;
57395;SDS011;43222;52.912;6.940;2023-04-25T03:27:32;23.38;;;3.90;;
57395;SDS011;43222;52.912;6.940;2023-04-25T03:29:58;27.65;;;4.47;;
57395;SDS011;43222;52.912;6.940;2023-04-25T03:32:24;20.95;;;3.67;;
57395;SDS011;43222;52.912;6.940;2023-04-25T03:34:50;16.90;;;3.00;;
57395;SDS011;43222;52.912;6.940;2023-04-25T03:37:16;24.35;;;3.63;;
57395;SDS011;43222;52.912;6.940;2023-04-25T03:39:42;20.30;;;3.90;;
57395;SDS011;43222;52.912;6.940;2023-04-25T03:42:08;19.75;;;3.67;;
57395;SDS011;43222;52.912;6.940;2023-04-25T03:44:35;14.85;;;3.70;;
57395;SDS011;43222;52.912;6.940;2023-04-25T03:47:01;20.50;;;3.72;;
57395;SDS011;43222;52.912;6.940;2023-04-25T03:49:27;19.30;;;4.13;;
57395;SDS011;43222;52.912;6.940;2023-04-25T03:51:53;18.33;;;3.67;;
57395;SDS011;43222;52.912;6.940;2023-04-25T03:54:19;16.23;;;3.63;;
57395;SDS011;43222;52.912;6.940;2023-04-25T03:56:45;20.13;;;3.88;;
57395;SDS011;43222;52.912;6.940;2023-04-25T03:59:11;22.88;;;3.63;;
57395;SDS011;43222;52.912;6.940;2023-04-25T04:01:37;21.20;;;3.95;;
57395;SDS011;43222;52.912;6.940;2023-04-25T04:04:03;22.48;;;3.30;;
57395;SDS011;43222;52.912;6.940;2023-04-25T04:06:29;23.70;;;3.90;;
57395;SDS011;43222;52.912;6.940;2023-04-25T04:08:55;26.73;;;3.60;;
57395;SDS011;43222;52.912;6.940;2023-04-25T04:11:22;20.90;;;3.65;;
57395;SDS011;43222;52.912;6.940;2023-04-25T04:13:48;19.27;;;3.25;;
57395;SDS011;43222;52.912;6.940;2023-04-25T04:16:14;16.13;;;3.75;;
57395;SDS011;43222;52.912;6.940;2023-04-25T04:18:40;20.30;;;3.53;;
57395;SDS011;43222;52.912;6.940;2023-04-25T04:21:06;17.63;;;3.30;;
57395;SDS011;43222;52.912;6.940;2023-04-25T04:23:32;21.90;;;3.58;;
57395;SDS011;43222;52.912;6.940;2023-04-25T04:25:58;20.08;;;3.47;;
57395;SDS011;43222;52.912;6.940;2023-04-25T04:28:25;22.08;;;4.10;;
57395;SDS011;43222;52.912;6.940;2023-04-25T04:30:51;19.83;;;3.90;;
57395;SDS011;43222;52.912;6.940;2023-04-25T04:33:17;19.48;;;3.78;;
57395;SDS011;43222;52.912;6.940;2023-04-25T04:35:44;22.38;;;3.80;;
57395;SDS011;43222;52.912;6.940;2023-04-25T04:38:11;17.70;;;3.35;;
57395;SDS011;43222;52.912;6.940;2023-04-25T04:40:40;21.27;;;3.42;;
57395;SDS011;43222;52.912;6.940;2023-04-25T04:43:08;22.08;;;3.30;;
57395;SDS011;43222;52.912;6.940;2023-04-25T04:45:35;18.48;;;2.92;;
57395;SDS011;43222;52.912;6.940;2023-04-25T04:48:05;19.92;;;3.92;;
57395;SDS011;43222;52.912;6.940;2023-04-25T04:50:31;20.45;;;3.63;;
57395;SDS011;43222;52.912;6.940;2023-04-25T04:52:58;20.48;;;3.80;;
57395;SDS011;43222;52.912;6.940;2023-04-25T04:55:24;17.98;;;3.38;;
57395;SDS011;43222;52.912;6.940;2023-04-25T04:57:50;20.13;;;3.47;;
57395;SDS011;43222;52.912;6.940;2023-04-25T05:00:16;21.40;;;3.60;;
57395;SDS011;43222;52.912;6.940;2023-04-25T05:02:42;16.27;;;2.90;;
57395;SDS011;43222;52.912;6.940;2023-04-25T05:05:08;16.17;;;2.90;;
57395;SDS011;43222;52.912;6.940;2023-04-25T05:07:34;15.80;;;2.75;;
57395;SDS011;43222;52.912;6.940;2023-04-25T05:10:01;16.17;;;2.90;;
57395;SDS011;43222;52.912;6.940;2023-04-25T05:12:27;16.00;;;2.45;;
57395;SDS011;43222;52.912;6.940;2023-04-25T05:14:53;13.40;;;2.88;;
57395;SDS011;43222;52.912;6.940;2023-04-25T05:17:19;11.88;;;2.40;;
57395;SDS011;43222;52.912;6.940;2023-04-25T05:19:45;12.52;;;2.72;;
57395;SDS011;43222;52.912;6.940;2023-04-25T05:22:11;12.40;;;2.30;;
57395;SDS011;43222;52.912;6.940;2023-04-25T05:24:37;12.15;;;2.20;;
57395;SDS011;43222;52.912;6.940;2023-04-25T05:27:04;13.77;;;2.40;;
57395;SDS011;43222;52.912;6.940;2023-04-25T05:29:30;11.95;;;2.08;;
57395;SDS011;43222;52.912;6.940;2023-04-25T05:31:56;11.25;;;2.40;;
57395;SDS011;43222;52.912;6.940;2023-04-25T05:34:22;10.80;;;2.25;;
57395;SDS011;43222;52.912;6.940;2023-04-25T05:36:48;10.73;;;2.30;;
57395;SDS011;43222;52.912;6.940;2023-04-25T05:39:17;9.85;;;2.00;;
57395;SDS011;43222;52.912;6.940;2023-04-25T05:41:43;14.27;;;2.53;;
57395;SDS011;43222;52.912;6.940;2023-04-25T05:44:09;11.15;;;2.17;;
57395;SDS011;43222;52.912;6.940;2023-04-25T05:46:35;12.35;;;2.03;;
57395;SDS011;43222;52.912;6.940;2023-04-25T05:49:01;12.70;;;1.92;;
57395;SDS011;43222;52.912;6.940;2023-04-25T05:51:27;11.48;;;2.13;;
57395;SDS011;43222;52.912;6.940;2023-04-25T05:53:54;11.23;;;2.20;;
57395;SDS011;43222;52.912;6.940;2023-04-25T05:56:20;10.43;;;1.92;;
57395;SDS011;43222;52.912;6.940;2023-04-25T05:58:46;15.32;;;2.30;;
57395;SDS011;43222;52.912;6.940;2023-04-25T06:01:12;11.30;;;2.22;;
57395;SDS011;43222;52.912;6.940;2023-04-25T06:03:39;11.10;;;2.03;;
57395;SDS011;43222;52.912;6.940;2023-04-25T06:06:07;18.40;;;2.28;;
57395;SDS011;43222;52.912;6.940;2023-04-25T06:08:34;14.13;;;2.20;;
57395;SDS011;43222;52.912;6.940;2023-04-25T06:11:00;10.02;;;1.80;;
57395;SDS011;43222;52.912;6.940;2023-04-25T06:13:26;10.95;;;2.17;;
57395;SDS011;43222;52.912;6.940;2023-04-25T06:15:52;10.73;;;2.05;;
57395;SDS011;43222;52.912;6.940;2023-04-25T06:18:18;12.53;;;2.07;;
57395;SDS011;43222;52.912;6.940;2023-04-25T06:20:44;13.40;;;2.38;;
57395;SDS011;43222;52.912;6.940;2023-04-25T06:23:11;14.27;;;2.58;;
57395;SDS011;43222;52.912;6.940;2023-04-25T06:25:37;10.40;;;2.13;;
57395;SDS011;43222;52.912;6.940;2023-04-25T06:28:03;13.90;;;2.30;;
57395;SDS011;43222;52.912;6.940;2023-04-25T06:30:29;10.30;;;2.20;;
57395;SDS011;43222;52.912;6.940;2023-04-25T06:32:55;13.15;;;2.10;;
57395;SDS011;43222;52.912;6.940;2023-04-25T06:35:21;11.85;;;2.10;;
57395;SDS011;43222;52.912;6.940;2023-04-25T06:37:47;15.05;;;2.30;;
57395;SDS011;43222;52.912;6.940;2023-04-25T06:40:13;12.73;;;2.50;;
57395;SDS011;43222;52.912;6.940;2023-04-25T06:42:39;12.20;;;2.20;;
57395;SDS011;43222;52.912;6.940;2023-04-25T06:45:06;12.88;;;2.72;;
57395;SDS011;43222;52.912;6.940;2023-04-25T06:47:32;12.88;;;2.00;;
57395;SDS011;43222;52.912;6.940;2023-04-25T06:49:58;13.30;;;2.72;;
57395;SDS011;43222;52.912;6.940;2023-04-25T06:52:24;16.13;;;2.55;;
57395;SDS011;43222;52.912;6.940;2023-04-25T06:54:50;11.80;;;2.13;;
57395;SDS011;43222;52.912;6.940;2023-04-25T06:57:16;11.75;;;2.38;;
57395;SDS011;43222;52.912;6.940;2023-04-25T06:59:42;13.32;;;2.63;;
57395;SDS011;43222;52.912;6.940;2023-04-25T07:02:08;14.40;;;2.35;;
57395;SDS011;43222;52.912;6.940;2023-04-25T07:04:34;11.50;;;2.33;;
57395;SDS011;43222;52.912;6.940;2023-04-25T07:07:00;12.35;;;1.80;;
57395;SDS011;43222;52.912;6.940;2023-04-25T07:09:27;11.13;;;2.17;;
57395;SDS011;43222;52.912;6.940;2023-04-25T07:11:54;12.65;;;2.35;;
57395;SDS011;43222;52.912;6.940;2023-04-25T07:14:20;13.88;;;2.50;;
57395;SDS011;43222;52.912;6.940;2023-04-25T07:16:46;12.43;;;2.55;;
57395;SDS011;43222;52.912;6.940;2023-04-25T07:19:12;14.27;;;2.22;;
57395;SDS011;43222;52.912;6.940;2023-04-25T07:21:38;11.40;;;2.10;;
57395;SDS011;43222;52.912;6.940;2023-04-25T07:24:04;11.77;;;2.30;;
57395;SDS011;43222;52.912;6.940;2023-04-25T07:26:30;11.98;;;2.20;;
57395;SDS011;43222;52.912;6.940;2023-04-25T07:28:56;10.93;;;2.13;;
57395;SDS011;43222;52.912;6.940;2023-04-25T07:31:22;12.32;;;2.00;;
57395;SDS011;43222;52.912;6.940;2023-04-25T07:33:49;12.35;;;2.10;;
57395;SDS011;43222;52.912;6.940;2023-04-25T07:36:15;10.75;;;2.30;;
57395;SDS011;43222;52.912;6.940;2023-04-25T07:38:41;11.27;;;2.00;;
57395;SDS011;43222;52.912;6.940;2023-04-25T07:41:07;11.63;;;2.00;;
57395;SDS011;43222;52.912;6.940;2023-04-25T07:43:33;10.75;;;2.15;;
57395;SDS011;43222;52.912;6.940;2023-04-25T07:45:59;11.75;;;2.83;;
57395;SDS011;43222;52.912;6.940;2023-04-25T07:48:25;11.40;;;2.05;;
57395;SDS011;43222;52.912;6.940;2023-04-25T07:50:51;9.63;;;1.65;;
57395;SDS011;43222;52.912;6.940;2023-04-25T07:53:17;11.80;;;1.73;;
57395;SDS011;43222;52.912;6.940;2023-04-25T07:55:43;11.73;;;2.47;;
57395;SDS011;43222;52.912;6.940;2023-04-25T07:58:11;10.25;;;1.75;;
57395;SDS011;43222;52.912;6.940;2023-04-25T08:00:37;10.35;;;1.65;;
57395;SDS011;43222;52.912;6.940;2023-04-25T08:03:03;11.98;;;1.92;;
57395;SDS011;43222;52.912;6.940;2023-04-25T08:05:29;11.77;;;2.17;;
57395;SDS011;43222;52.912;6.940;2023-04-25T08:07:55;10.43;;;1.83;;
57395;SDS011;43222;52.912;6.940;2023-04-25T08:10:22;9.45;;;1.92;;
57395;SDS011;43222;52.912;6.940;2023-04-25T08:12:48;8.45;;;1.55;;
57395;SDS011;43222;52.912;6.940;2023-04-25T08:15:14;10.48;;;1.70;;
57395;SDS011;43222;52.912;6.940;2023-04-25T08:17:40;7.53;;;1.33;;
57395;SDS011;43222;52.912;6.940;2023-04-25T08:20:07;11.43;;;1.52;;
57395;SDS011;43222;52.912;6.940;2023-04-25T08:22:33;9.82;;;1.42;;
57395;SDS011;43222;52.912;6.940;2023-04-25T08:24:59;7.53;;;1.50;;
57395;SDS011;43222;52.912;6.940;2023-04-25T08:27:25;9.35;;;1.30;;
57395;SDS011;43222;52.912;6.940;2023-04-25T08:29:52;8.95;;;1.67;;
57395;SDS011;43222;52.912;6.940;2023-04-25T08:32:18;9.95;;;1.63;;
57395;SDS011;43222;52.912;6.940;2023-04-25T08:34:46;7.63;;;1.23;;
57395;SDS011;43222;52.912;6.940;2023-04-25T08:37:12;9.57;;;1.52;;
57395;SDS011;43222;52.912;6.940;2023-04-25T08:39:38;6.53;;;1.08;;
57395;SDS011;43222;52.912;6.940;2023-04-25T08:42:07;9.00;;;1.98;;
57395;SDS011;43222;52.912;6.940;2023-04-25T08:44:33;9.15;;;1.80;;
57395;SDS011;43222;52.912;6.940;2023-04-25T08:47:01;9.88;;;1.77;;
57395;SDS011;43222;52.912;6.940;2023-04-25T08:49:28;11.15;;;1.40;;
57395;SDS011;43222;52.912;6.940;2023-04-25T08:51:55;8.70;;;1.40;;
57395;SDS011;43222;52.912;6.940;2023-04-25T08:54:22;7.57;;;1.30;;
57395;SDS011;43222;52.912;6.940;2023-04-25T08:56:51;7.43;;;1.60;;
57395;SDS011;43222;52.912;6.940;2023-04-25T08:59:17;9.05;;;1.33;;
57395;SDS011;43222;52.912;6.940;2023-04-25T09:01:43;9.82;;;1.50;;
57395;SDS011;43222;52.912;6.940;2023-04-25T09:04:11;6.85;;;1.40;;
57395;SDS011;43222;52.912;6.940;2023-04-25T09:06:37;9.05;;;1.52;;
57395;SDS011;43222;52.912;6.940;2023-04-25T09:09:04;9.88;;;1.40;;
57395;SDS011;43222;52.912;6.940;2023-04-25T09:11:31;9.10;;;1.55;;
57395;SDS011;43222;52.912;6.940;2023-04-25T09:14:10;8.30;;;1.75;;
57395;SDS011;43222;52.912;6.940;2023-04-25T09:16:52;5.13;;;0.88;;
57395;SDS011;43222;52.912;6.940;2023-04-25T09:19:27;6.18;;;0.80;;
57395;SDS011;43222;52.912;6.940;2023-04-25T09:21:53;11.98;;;1.27;;
57395;SDS011;43222;52.912;6.940;2023-04-25T09:24:39;8.25;;;1.20;;
57395;SDS011;43222;52.912;6.940;2023-04-25T09:27:10;8.40;;;1.42;;
57395;SDS011;43222;52.912;6.940;2023-04-25T09:29:37;7.65;;;1.10;;
57395;SDS011;43222;52.912;6.940;2023-04-25T09:32:36;6.00;;;0.90;;
57395;SDS011;43222;52.912;6.940;2023-04-25T09:34:56;6.13;;;1.00;;
57395;SDS011;43222;52.912;6.940;2023-04-25T09:37:23;7.00;;;1.27;;
57395;SDS011;43222;52.912;6.940;2023-04-25T09:39:51;6.85;;;1.10;;
57395;SDS011;43222;52.912;6.940;2023-04-25T09:42:17;5.60;;;1.08;;
57395;SDS011;43222;52.912;6.940;2023-04-25T09:44:44;5.57;;;1.38;;
57395;SDS011;43222;52.912;6.940;2023-04-25T09:47:11;6.55;;;1.27;;
57395;SDS011;43222;52.912;6.940;2023-04-25T09:49:38;6.95;;;1.40;;
57395;SDS011;43222;52.912;6.940;2023-04-25T09:52:05;6.80;;;1.10;;
57395;SDS011;43222;52.912;6.940;2023-04-25T09:54:32;7.05;;;1.10;;
57395;SDS011;43222;52.912;6.940;2023-04-25T09:56:58;10.68;;;1.55;;
57395;SDS011;43222;52.912;6.940;2023-04-25T09:59:28;9.50;;;1.80;;
57395;SDS011;43222;52.912;6.940;2023-04-25T10:01:56;9.90;;;1.58;;
57395;SDS011;43222;52.912;6.940;2023-04-25T10:04:24;7.82;;;1.55;;
57395;SDS011;43222;52.912;6.940;2023-04-25T10:06:53;5.80;;;1.33;;
57395;SDS011;43222;52.912;6.940;2023-04-25T10:09:20;8.07;;;1.60;;
57395;SDS011;43222;52.912;6.940;2023-04-25T10:11:48;9.77;;;1.65;;
57395;SDS011;43222;52.912;6.940;2023-04-25T10:14:14;8.57;;;1.20;;
57395;SDS011;43222;52.912;6.940;2023-04-25T10:16:41;8.88;;;1.60;;
57395;SDS011;43222;52.912;6.940;2023-04-25T10:19:07;7.20;;;1.25;;
57395;SDS011;43222;52.912;6.940;2023-04-25T10:21:33;8.50;;;1.42;;
57395;SDS011;43222;52.912;6.940;2023-04-25T10:24:00;14.00;;;1.90;;
57395;SDS011;43222;52.912;6.940;2023-04-25T10:26:26;10.48;;;1.60;;
57395;SDS011;43222;52.912;6.940;2023-04-25T10:29:02;7.32;;;1.42;;
57395;SDS011;43222;52.912;6.940;2023-04-25T10:31:29;6.38;;;1.40;;
57395;SDS011;43222;52.912;6.940;2023-04-25T10:33:56;6.10;;;1.10;;
57395;SDS011;43222;52.912;6.940;2023-04-25T10:36:22;4.93;;;1.23;;
57395;SDS011;43222;52.912;6.940;2023-04-25T10:38:49;6.05;;;1.00;;
57395;SDS011;43222;52.912;6.940;2023-04-25T10:41:15;6.88;;;1.33;;
57395;SDS011;43222;52.912;6.940;2023-04-25T10:43:44;8.48;;;1.40;;
57395;SDS011;43222;52.912;6.940;2023-04-25T10:46:21;8.57;;;1.67;;
57395;SDS011;43222;52.912;6.940;2023-04-25T10:48:49;8.60;;;1.50;;
57395;SDS011;43222;52.912;6.940;2023-04-25T10:53:56;8.98;;;1.42;;
57395;SDS011;43222;52.912;6.940;2023-04-25T10:56:24;8.10;;;1.98;;
57395;SDS011;43222;52.912;6.940;2023-04-25T10:58:50;9.07;;;1.60;;
57395;SDS011;43222;52.912;6.940;2023-04-25T11:01:20;10.30;;;1.77;;
57395;SDS011;43222;52.912;6.940;2023-04-25T11:03:46;8.18;;;1.60;;
57395;SDS011;43222;52.912;6.940;2023-04-25T11:08:48;9.95;;;1.70;;
57395;SDS011;43222;52.912;6.940;2023-04-25T11:11:15;7.97;;;1.43;;
57395;SDS011;43222;52.912;6.940;2023-04-25T11:13:42;7.70;;;1.70;;
57395;SDS011;43222;52.912;6.940;2023-04-25T11:16:08;7.70;;;1.58;;
57395;SDS011;43222;52.912;6.940;2023-04-25T11:18:34;11.85;;;2.05;;
57395;SDS011;43222;52.912;6.940;2023-04-25T11:21:00;12.60;;;1.90;;
57395;SDS011;43222;52.912;6.940;2023-04-25T11:23:26;11.93;;;1.98;;
57395;SDS011;43222;52.912;6.940;2023-04-25T11:25:52;9.05;;;1.70;;
57395;SDS011;43222;52.912;6.940;2023-04-25T11:28:22;12.32;;;2.17;;
57395;SDS011;43222;52.912;6.940;2023-04-25T11:30:49;12.70;;;1.88;;
57395;SDS011;43222;52.912;6.940;2023-04-25T11:33:15;10.98;;;2.10;;
57395;SDS011;43222;52.912;6.940;2023-04-25T11:35:41;9.80;;;1.92;;
57395;SDS011;43222;52.912;6.940;2023-04-25T11:38:08;8.07;;;1.70;;
57395;SDS011;43222;52.912;6.940;2023-04-25T11:40:35;10.75;;;1.77;;
57395;SDS011;43222;52.912;6.940;2023-04-25T11:43:01;9.63;;;1.85;;
57395;SDS011;43222;52.912;6.940;2023-04-25T11:45:27;10.43;;;1.60;;
57395;SDS011;43222;52.912;6.940;2023-04-25T11:47:55;8.77;;;1.77;;
57395;SDS011;43222;52.912;6.940;2023-04-25T11:50:21;15.20;;;2.40;;
57395;SDS011;43222;52.912;6.940;2023-04-25T11:52:47;11.20;;;2.13;;
57395;SDS011;43222;52.912;6.940;2023-04-25T11:55:18;8.88;;;1.30;;
57395;SDS011;43222;52.912;6.940;2023-04-25T11:57:44;8.40;;;1.65;;
57395;SDS011;43222;52.912;6.940;2023-04-25T12:00:14;6.32;;;1.25;;
57395;SDS011;43222;52.912;6.940;2023-04-25T12:02:42;5.63;;;1.15;;
57395;SDS011;43222;52.912;6.940;2023-04-25T12:05:09;6.22;;;1.35;;
57395;SDS011;43222;52.912;6.940;2023-04-25T12:07:35;5.70;;;0.85;;
57395;SDS011;43222;52.912;6.940;2023-04-25T12:10:09;4.32;;;1.15;;
57395;SDS011;43222;52.912;6.940;2023-04-25T12:12:36;7.15;;;1.17;;
57395;SDS011;43222;52.912;6.940;2023-04-25T12:15:15;8.52;;;1.67;;
57395;SDS011;43222;52.912;6.940;2023-04-25T12:20:12;9.38;;;1.60;;
57395;SDS011;43222;52.912;6.940;2023-04-25T12:22:40;10.77;;;1.65;;
57395;SDS011;43222;52.912;6.940;2023-04-25T12:25:10;7.97;;;1.55;;
57395;SDS011;43222;52.912;6.940;2023-04-25T12:27:36;10.55;;;1.75;;
57395;SDS011;43222;52.912;6.940;2023-04-25T12:30:02;12.23;;;1.83;;
57395;SDS011;43222;52.912;6.940;2023-04-25T12:32:29;11.93;;;1.90;;
57395;SDS011;43222;52.912;6.940;2023-04-25T12:34:56;9.13;;;1.73;;
57395;SDS011;43222;52.912;6.940;2023-04-25T12:37:22;9.77;;;1.85;;
57395;SDS011;43222;52.912;6.940;2023-04-25T12:39:48;9.65;;;1.63;;
57395;SDS011;43222;52.912;6.940;2023-04-25T12:42:15;9.55;;;1.70;;
57395;SDS011;43222;52.912;6.940;2023-04-25T12:44:41;7.65;;;1.55;;
57395;SDS011;43222;52.912;6.940;2023-04-25T12:47:07;7.22;;;1.35;;
57395;SDS011;43222;52.912;6.940;2023-04-25T12:49:33;7.70;;;1.60;;
57395;SDS011;43222;52.912;6.940;2023-04-25T12:51:59;5.78;;;1.23;;
57395;SDS011;43222;52.912;6.940;2023-04-25T12:54:26;5.90;;;1.17;;
57395;SDS011;43222;52.912;6.940;2023-04-25T12:56:52;6.10;;;1.13;;
57395;SDS011;43222;52.912;6.940;2023-04-25T12:59:18;6.57;;;1.30;;
57395;SDS011;43222;52.912;6.940;2023-04-25T13:01:45;7.22;;;1.30;;
57395;SDS011;43222;52.912;6.940;2023-04-25T13:04:11;13.10;;;1.60;;
57395;SDS011;43222;52.912;6.940;2023-04-25T13:06:38;8.40;;;1.60;;
57395;SDS011;43222;52.912;6.940;2023-04-25T13:09:04;9.90;;;1.60;;
57395;SDS011;43222;52.912;6.940;2023-04-25T13:11:31;9.48;;;2.10;;
57395;SDS011;43222;52.912;6.940;2023-04-25T13:13:57;11.35;;;2.00;;
57395;SDS011;43222;52.912;6.940;2023-04-25T13:16:23;8.25;;;1.60;;
57395;SDS011;43222;52.912;6.940;2023-04-25T13:18:49;7.93;;;1.40;;
57395;SDS011;43222;52.912;6.940;2023-04-25T13:21:16;10.00;;;2.00;;
57395;SDS011;43222;52.912;6.940;2023-04-25T13:23:42;9.25;;;1.73;;
57395;SDS011;43222;52.912;6.940;2023-04-25T13:26:09;9.15;;;1.30;;
57395;SDS011;43222;52.912;6.940;2023-04-25T13:28:35;10.77;;;1.50;;
57395;SDS011;43222;52.912;6.940;2023-04-25T13:31:01;8.15;;;1.48;;
57395;SDS011;43222;52.912;6.940;2023-04-25T13:33:28;7.88;;;1.52;;
57395;SDS011;43222;52.912;6.940;2023-04-25T13:35:54;8.45;;;1.73;;
57395;SDS011;43222;52.912;6.940;2023-04-25T13:38:21;5.75;;;1.20;;
57395;SDS011;43222;52.912;6.940;2023-04-25T13:40:48;7.28;;;1.08;;
57395;SDS011;43222;52.912;6.940;2023-04-25T13:43:15;10.18;;;1.40;;
57395;SDS011;43222;52.912;6.940;2023-04-25T13:45:41;9.57;;;1.40;;
57395;SDS011;43222;52.912;6.940;2023-04-25T13:48:07;7.90;;;1.40;;
57395;SDS011;43222;52.912;6.940;2023-04-25T13:50:33;11.23;;;1.58;;
57395;SDS011;43222;52.912;6.940;2023-04-25T13:53:00;7.20;;;1.55;;
57395;SDS011;43222;52.912;6.940;2023-04-25T13:55:26;8.75;;;1.33;;
57395;SDS011;43222;52.912;6.940;2023-04-25T13:57:52;8.77;;;1.88;;
57395;SDS011;43222;52.912;6.940;2023-04-25T14:00:18;8.30;;;1.80;;
57395;SDS011;43222;52.912;6.940;2023-04-25T14:02:45;9.63;;;1.70;;
57395;SDS011;43222;52.912;6.940;2023-04-25T14:05:11;10.65;;;1.90;;
57395;SDS011;43222;52.912;6.940;2023-04-25T14:07:38;6.55;;;1.60;;
57395;SDS011;43222;52.912;6.940;2023-04-25T14:10:04;10.05;;;1.63;;
57395;SDS011;43222;52.912;6.940;2023-04-25T14:12:31;8.55;;;1.50;;
57395;SDS011;43222;52.912;6.940;2023-04-25T14:14:58;9.52;;;1.40;;
57395;SDS011;43222;52.912;6.940;2023-04-25T14:17:24;9.52;;;1.95;;
57395;SDS011;43222;52.912;6.940;2023-04-25T14:19:50;11.90;;;2.03;;
57395;SDS011;43222;52.912;6.940;2023-04-25T14:22:16;12.27;;;2.20;;
57395;SDS011;43222;52.912;6.940;2023-04-25T14:24:42;9.50;;;2.42;;
57395;SDS011;43222;52.912;6.940;2023-04-25T14:27:11;11.73;;;2.05;;
57395;SDS011;43222;52.912;6.940;2023-04-25T14:29:37;11.27;;;2.17;;
57395;SDS011;43222;52.912;6.940;2023-04-25T14:32:03;12.20;;;2.03;;
57395;SDS011;43222;52.912;6.940;2023-04-25T14:34:30;10.18;;;2.00;;
57395;SDS011;43222;52.912;6.940;2023-04-25T14:36:56;9.65;;;1.90;;
57395;SDS011;43222;52.912;6.940;2023-04-25T14:39:22;11.32;;;1.75;;
57395;SDS011;43222;52.912;6.940;2023-04-25T14:41:49;10.23;;;1.63;;